createdAt,value
2022-09-21T00:02:15.266Z,1.23
2022-09-21T00:04:45.154Z,1.15
2022-09-21T00:07:17.646Z,1.30
2022-09-21T00:09:47.510Z,1.10
2022-09-21T00:12:17.380Z,1.17
2022-09-21T00:14:47.275Z,1.85
2022-09-21T00:17:17.192Z,1.25
2022-09-21T00:19:47.067Z,1.50
2022-09-21T00:22:19.543Z,2.10
2022-09-21T00:24:49.487Z,1.60
2022-09-21T00:27:19.360Z,1.98
2022-09-21T00:29:49.268Z,1.50
2022-09-21T00:32:20.362Z,2.05
2022-09-21T00:34:50.393Z,1.80
2022-09-21T00:37:23.604Z,2.20
2022-09-21T00:39:53.616Z,1.80
2022-09-21T00:42:25.867Z,1.80
2022-09-21T00:44:55.821Z,1.95
2022-09-21T00:47:30.131Z,1.98
2022-09-21T00:50:02.196Z,1.70
2022-09-21T00:52:38.538Z,2.00
2022-09-21T00:55:15.545Z,2.13
2022-09-21T00:57:46.718Z,1.75
2022-09-21T01:00:16.772Z,1.70
2022-09-21T01:02:47.486Z,2.22
2022-09-21T01:05:17.564Z,1.77
2022-09-21T01:07:51.248Z,1.70
2022-09-21T01:10:22.314Z,1.92
2022-09-21T01:13:12.234Z,1.90
2022-09-21T01:15:48.726Z,1.63
2022-09-21T01:18:24.564Z,1.95
2022-09-21T01:21:18.835Z,1.83
2022-09-21T01:24:21.335Z,1.67
2022-09-21T01:27:36.271Z,2.00
2022-09-21T01:30:13.888Z,1.80
2022-09-21T01:32:49.392Z,2.00
2022-09-21T01:35:24.091Z,2.07
2022-09-21T01:37:58.570Z,2.28
2022-09-21T01:40:35.571Z,2.10
2022-09-21T01:43:09.613Z,2.50
2022-09-21T01:45:45.229Z,2.40
2022-09-21T01:48:17.435Z,2.10
2022-09-21T01:50:49.835Z,2.10
2022-09-21T01:53:24.515Z,2.27
2022-09-21T01:55:58.203Z,2.17
2022-09-21T01:58:35.128Z,1.90
2022-09-21T02:01:10.497Z,2.08
2022-09-21T02:03:45.327Z,2.50
2022-09-21T02:06:16.510Z,2.20
2022-09-21T02:08:47.351Z,2.03
2022-09-21T02:11:17.108Z,2.25
2022-09-21T02:13:51.302Z,2.30
2022-09-21T02:16:39.787Z,2.38
2022-09-21T02:19:17.072Z,2.50
2022-09-21T02:22:03.428Z,1.95
2022-09-21T02:24:41.458Z,2.00
2022-09-21T02:27:27.092Z,1.98
2022-09-21T02:30:04.811Z,1.80
2022-09-21T02:32:50.483Z,1.80
2022-09-21T02:35:30.515Z,1.87
2022-09-21T02:38:09.929Z,1.90
2022-09-21T02:40:46.544Z,1.95
2022-09-21T02:43:23.456Z,1.88
2022-09-21T02:45:58.286Z,1.80
2022-09-21T02:48:36.104Z,1.83
2022-09-21T02:51:12.529Z,1.73
2022-09-21T02:53:44.244Z,2.00
2022-09-21T02:56:16.417Z,1.98
2022-09-21T02:58:51.284Z,1.77
2022-09-21T03:01:22.885Z,2.00
2022-09-21T03:03:55.679Z,1.83
2022-09-21T03:06:25.404Z,2.17
2022-09-21T03:08:55.444Z,1.80
2022-09-21T03:11:25.096Z,2.17
2022-09-21T03:13:54.980Z,1.80
2022-09-21T03:16:25.576Z,1.77
2022-09-21T03:18:57.858Z,2.13
2022-09-21T03:21:27.595Z,2.10
2022-09-21T03:23:57.268Z,1.70
2022-09-21T03:26:27.115Z,1.67
2022-09-21T03:28:57.401Z,1.83
2022-09-21T03:31:27.280Z,2.40
2022-09-21T03:33:59.578Z,1.90
2022-09-21T03:36:29.296Z,1.70
2022-09-21T03:38:59.199Z,1.98
2022-09-21T03:41:28.897Z,2.47
2022-09-21T03:43:58.569Z,1.70
2022-09-21T03:46:28.686Z,2.10
2022-09-21T03:49:01.237Z,1.88
2022-09-21T03:51:31.596Z,2.40
2022-09-21T03:54:01.294Z,2.00
2022-09-21T03:56:31.188Z,2.17
2022-09-21T03:59:01.147Z,1.80
2022-09-21T04:01:31.487Z,2.33
2022-09-21T04:04:04.055Z,1.70
2022-09-21T04:06:34.084Z,1.92
2022-09-21T04:09:04.434Z,2.10
2022-09-21T04:11:34.140Z,2.38
2022-09-21T04:14:03.845Z,2.13
2022-09-21T04:16:33.487Z,2.17
2022-09-21T04:19:05.989Z,1.80
2022-09-21T04:21:36.016Z,1.90
2022-09-21T04:24:05.956Z,1.80
2022-09-21T04:26:38.021Z,1.67
2022-09-21T04:29:07.980Z,1.80
2022-09-21T04:31:37.692Z,1.60
2022-09-21T04:34:10.120Z,1.58
2022-09-21T04:36:39.775Z,1.70
2022-09-21T04:39:10.152Z,1.35
2022-09-21T04:41:39.827Z,1.27
2022-09-21T04:44:09.739Z,1.33
2022-09-21T04:46:39.444Z,1.45
2022-09-21T04:49:11.725Z,1.50
2022-09-21T04:51:41.741Z,1.75
2022-09-21T04:54:11.416Z,1.65
2022-09-21T04:56:41.120Z,1.45
2022-09-21T04:59:10.877Z,1.80
2022-09-21T05:01:40.614Z,1.70
2022-09-21T05:04:13.000Z,1.30
2022-09-21T05:06:42.680Z,1.20
2022-09-21T05:09:24.814Z,1.50
2022-09-21T05:11:54.497Z,1.70
2022-09-21T05:14:24.159Z,1.42
2022-09-21T05:16:53.868Z,1.30
2022-09-21T05:19:26.195Z,1.40
2022-09-21T05:21:55.856Z,1.30
2022-09-21T05:24:25.532Z,1.92
2022-09-21T05:26:55.200Z,2.10
2022-09-21T05:29:25.490Z,1.80
2022-09-21T05:32:02.114Z,2.17
2022-09-21T05:34:44.489Z,1.85
2022-09-21T05:37:28.765Z,1.92
2022-09-21T05:39:59.280Z,1.98
2022-09-21T05:42:29.661Z,1.80
2022-09-21T05:45:00.039Z,1.60
2022-09-21T05:47:40.207Z,1.92
2022-09-21T05:50:27.477Z,1.40
2022-09-21T05:53:07.793Z,1.25
2022-09-21T05:55:48.989Z,1.40
2022-09-21T05:58:27.483Z,1.75
2022-09-21T06:01:07.173Z,1.30
2022-09-21T06:03:37.840Z,1.23
2022-09-21T06:06:11.261Z,1.63
2022-09-21T06:08:40.988Z,1.40
2022-09-21T06:11:10.675Z,1.90
2022-09-21T06:13:41.144Z,2.75
2022-09-21T06:16:11.316Z,1.80
2022-09-21T06:18:42.565Z,1.73
2022-09-21T06:21:15.060Z,1.50
2022-09-21T06:23:44.736Z,1.73
2022-09-21T06:26:14.429Z,1.83
2022-09-21T06:28:44.143Z,1.90
2022-09-21T06:31:13.948Z,1.60
2022-09-21T06:33:47.908Z,1.67
2022-09-21T06:36:20.459Z,1.50
2022-09-21T06:38:50.211Z,1.88
2022-09-21T06:41:21.470Z,1.73
2022-09-21T06:43:51.332Z,1.90
2022-09-21T06:46:21.057Z,1.90
2022-09-21T06:48:50.758Z,1.60
2022-09-21T06:51:24.157Z,2.00
2022-09-21T06:53:58.062Z,1.80
2022-09-21T06:56:28.492Z,2.00
2022-09-21T06:58:58.900Z,2.15
2022-09-21T07:01:28.615Z,1.95
2022-09-21T07:03:58.485Z,1.52
2022-09-21T07:06:31.026Z,1.90
2022-09-21T07:11:50.975Z,2.00
2022-09-21T07:14:21.049Z,2.15
2022-09-21T07:16:50.851Z,1.70
2022-09-21T07:19:20.589Z,1.70
2022-09-21T07:21:52.896Z,1.90
2022-09-21T07:24:22.641Z,1.75
2022-09-21T07:26:53.146Z,1.83
2022-09-21T07:29:22.899Z,2.85
2022-09-21T07:31:52.662Z,2.58
2022-09-21T07:34:22.631Z,2.40
2022-09-21T07:36:54.957Z,1.95
2022-09-21T07:39:24.795Z,2.60
2022-09-21T07:41:54.598Z,2.42
2022-09-21T07:44:24.317Z,2.10
2022-09-21T07:46:54.165Z,2.30
2022-09-21T07:49:23.919Z,2.20
2022-09-21T07:52:01.414Z,1.63
2022-09-21T07:54:33.861Z,1.60
2022-09-21T07:57:16.030Z,1.80
2022-09-21T07:59:46.052Z,1.77
2022-09-21T08:02:16.026Z,1.70
2022-09-21T08:04:45.762Z,1.80
2022-09-21T08:07:18.094Z,2.00
2022-09-21T08:09:49.488Z,1.63
2022-09-21T08:12:20.861Z,1.88
2022-09-21T08:14:50.847Z,1.80
2022-09-21T08:17:20.536Z,1.55
2022-09-21T08:19:50.204Z,1.45
2022-09-21T08:22:25.604Z,1.40
2022-09-21T08:24:57.304Z,1.23
2022-09-21T08:27:27.847Z,1.50
2022-09-21T08:29:57.961Z,1.58
2022-09-21T08:32:49.971Z,1.40
2022-09-21T08:35:19.387Z,1.05
2022-09-21T08:37:51.704Z,1.27
2022-09-21T08:40:22.274Z,1.13
2022-09-21T08:43:00.136Z,1.02
2022-09-21T08:45:35.990Z,2.22
2022-09-21T08:48:13.178Z,1.40
2022-09-21T08:50:46.861Z,1.20
2022-09-21T08:53:22.534Z,0.90
2022-09-21T08:55:52.489Z,1.77
2022-09-21T08:58:26.385Z,1.00
2022-09-21T09:01:08.691Z,1.13
2022-09-21T09:04:05.346Z,1.05
2022-09-21T09:06:44.928Z,1.23
2022-09-21T09:09:39.460Z,1.00
2022-09-21T09:12:24.405Z,1.05
2022-09-21T09:15:09.604Z,0.80
2022-09-21T09:17:51.556Z,0.82
2022-09-21T09:20:24.648Z,1.15
2022-09-21T09:23:05.202Z,1.00
2022-09-21T09:25:40.963Z,0.90
2022-09-21T09:28:23.656Z,0.98
2022-09-21T09:31:01.691Z,0.98
2022-09-21T09:33:37.519Z,1.02
2022-09-21T09:36:09.310Z,1.05
2022-09-21T09:38:43.168Z,1.05
2022-09-21T09:41:36.326Z,1.25
2022-09-21T09:44:28.731Z,1.10
2022-09-21T09:47:08.257Z,1.17
2022-09-21T09:50:00.238Z,1.13
2022-09-21T09:52:30.593Z,1.08
2022-09-21T09:55:01.568Z,0.80
2022-09-21T09:57:36.140Z,1.40
2022-09-21T10:00:12.376Z,1.15
2022-09-21T10:02:50.759Z,0.75
2022-09-21T10:05:26.452Z,1.02
2022-09-21T10:07:56.525Z,1.08
2022-09-21T10:10:35.352Z,1.00
2022-09-21T10:13:26.145Z,1.02
2022-09-21T10:15:58.994Z,1.10
2022-09-21T10:18:37.773Z,0.80
2022-09-21T10:21:10.831Z,0.82
2022-09-21T10:23:41.317Z,1.02
2022-09-21T10:26:13.315Z,1.08
2022-09-21T10:28:58.593Z,0.70
2022-09-21T10:31:30.049Z,0.93
2022-09-21T10:34:10.790Z,0.80
2022-09-21T10:36:41.727Z,0.93
2022-09-21T10:39:25.970Z,0.90
2022-09-21T10:42:08.595Z,1.00
2022-09-21T10:44:44.172Z,1.20
2022-09-21T10:47:21.472Z,1.02
2022-09-21T10:49:54.249Z,0.80
2022-09-21T10:52:27.111Z,1.10
2022-09-21T10:54:59.336Z,1.05
2022-09-21T10:57:32.720Z,1.02
2022-09-21T11:00:15.744Z,1.13
2022-09-21T11:02:46.704Z,0.90
2022-09-21T11:05:20.429Z,0.80
2022-09-21T11:07:55.552Z,1.45
2022-09-21T11:10:34.311Z,1.17
2022-09-21T11:13:20.655Z,1.42
2022-09-21T11:15:58.412Z,1.00
2022-09-21T11:18:40.922Z,1.02
2022-09-21T11:21:20.580Z,0.93
2022-09-21T11:24:03.291Z,1.20
2022-09-21T11:26:38.719Z,1.27
2022-09-21T11:29:18.013Z,0.98
2022-09-21T11:32:06.227Z,1.10
2022-09-21T11:34:58.028Z,0.95
2022-09-21T11:37:52.257Z,1.10
2022-09-21T11:40:38.605Z,0.98
2022-09-21T11:43:23.898Z,0.88
2022-09-21T11:46:05.882Z,1.00
2022-09-21T11:48:53.388Z,0.77
2022-09-21T11:51:56.026Z,1.45
2022-09-21T11:54:48.264Z,0.80
2022-09-21T11:57:24.390Z,0.80
2022-09-21T12:00:07.378Z,0.68
2022-09-21T12:03:08.722Z,0.70
2022-09-21T12:05:49.117Z,0.80
2022-09-21T12:08:46.777Z,0.90
2022-09-21T12:11:29.924Z,0.88
2022-09-21T12:14:06.613Z,0.90
2022-09-21T12:16:44.965Z,0.80
2022-09-21T12:19:24.768Z,0.82
2022-09-21T12:22:02.716Z,0.82
2022-09-21T12:24:37.764Z,0.75
2022-09-21T12:27:14.392Z,0.70
2022-09-21T12:29:48.803Z,0.98
2022-09-21T12:32:24.434Z,0.70
2022-09-21T12:34:59.278Z,0.90
2022-09-21T12:37:34.855Z,0.90
2022-09-21T12:40:10.041Z,0.90
2022-09-21T12:42:45.779Z,0.68
2022-09-21T12:45:20.421Z,0.98
2022-09-21T12:47:56.490Z,0.98
2022-09-21T12:50:32.568Z,0.98
2022-09-21T12:53:05.774Z,1.08
2022-09-21T12:55:44.687Z,1.00
2022-09-21T12:58:26.907Z,1.10
2022-09-21T13:01:06.491Z,1.00
2022-09-21T13:03:43.947Z,1.30
2022-09-21T13:06:41.237Z,1.15
2022-09-21T13:09:17.473Z,1.13
2022-09-21T13:11:56.822Z,0.98
2022-09-21T13:14:28.149Z,0.93
2022-09-21T13:17:01.164Z,1.02
2022-09-21T13:19:32.909Z,1.35
2022-09-21T13:22:19.954Z,1.00
2022-09-21T13:25:03.424Z,1.02
2022-09-21T13:28:04.430Z,1.38
2022-09-21T13:30:38.006Z,1.13
2022-09-21T13:33:36.354Z,0.90
2022-09-21T13:36:34.179Z,1.05
2022-09-21T13:39:17.674Z,1.10
2022-09-21T13:42:02.793Z,1.15
2022-09-21T13:44:46.534Z,0.85
2022-09-21T13:47:18.836Z,1.20
2022-09-21T13:49:58.385Z,1.02
2022-09-21T13:52:40.580Z,1.10
2022-09-21T13:55:25.498Z,1.50
2022-09-21T13:58:02.213Z,1.40
2022-09-21T14:00:37.944Z,0.98
2022-09-21T14:03:20.663Z,1.15
2022-09-21T14:05:53.836Z,1.00
2022-09-21T14:08:31.463Z,1.08
2022-09-21T14:11:04.499Z,0.98
2022-09-21T14:13:41.643Z,1.17
2022-09-21T14:16:51.958Z,1.23
2022-09-21T14:20:10.518Z,1.30
2022-09-21T14:22:44.771Z,1.10
2022-09-21T14:25:29.171Z,1.23
2022-09-21T14:28:06.820Z,1.13
2022-09-21T14:30:41.769Z,1.08
2022-09-21T14:33:44.247Z,0.93
2022-09-21T14:36:21.437Z,0.98
2022-09-21T14:38:55.472Z,0.80
2022-09-21T14:41:27.931Z,1.10
2022-09-21T14:43:58.705Z,1.10
2022-09-21T14:47:09.835Z,0.82
2022-09-21T14:49:54.647Z,1.27
2022-09-21T14:52:40.109Z,1.10
2022-09-21T14:55:20.267Z,1.42
2022-09-21T14:58:02.644Z,1.10
2022-09-21T15:00:41.285Z,0.93
2022-09-21T15:03:49.072Z,1.17
2022-09-21T15:06:37.824Z,1.05
2022-09-21T15:09:44.230Z,0.80
2022-09-21T15:12:19.596Z,1.00
2022-09-21T15:14:54.183Z,0.88
2022-09-21T15:17:29.981Z,1.38
2022-09-21T15:20:17.137Z,0.93
2022-09-21T15:22:47.109Z,1.00
2022-09-21T15:25:18.911Z,1.08
2022-09-21T15:27:49.205Z,1.10
2022-09-21T15:30:26.070Z,1.33
2022-09-21T15:32:58.623Z,0.95
2022-09-21T15:35:33.548Z,1.00
2022-09-21T15:38:04.567Z,1.30
2022-09-21T15:40:36.588Z,0.80
2022-09-21T15:43:09.023Z,0.90
2022-09-21T15:45:55.808Z,0.90
2022-09-21T15:48:26.280Z,1.13
2022-09-21T15:51:02.518Z,0.88
2022-09-21T15:53:36.375Z,1.33
2022-09-21T15:56:06.153Z,0.80
2022-09-21T15:58:38.053Z,1.10
2022-09-21T16:01:13.916Z,1.20
2022-09-21T16:03:44.874Z,1.13
2022-09-21T16:06:29.745Z,1.38
2022-09-21T16:08:59.524Z,1.00
2022-09-21T16:11:38.392Z,1.00
2022-09-21T16:14:26.236Z,1.60
2022-09-21T16:17:22.896Z,1.08
2022-09-21T16:20:18.242Z,1.10
2022-09-21T16:22:52.532Z,2.03
2022-09-21T16:25:34.595Z,1.20
2022-09-21T16:28:07.270Z,0.80
2022-09-21T16:30:46.319Z,0.93
2022-09-21T16:33:38.394Z,1.00
2022-09-21T16:36:32.694Z,1.27
2022-09-21T16:39:07.963Z,1.20
2022-09-21T16:41:42.747Z,1.20
2022-09-21T16:44:20.858Z,1.08
2022-09-21T16:46:55.089Z,1.00
2022-09-21T16:49:29.971Z,1.25
2022-09-21T16:52:00.612Z,0.93
2022-09-21T16:54:33.340Z,1.20
2022-09-21T16:57:06.365Z,0.77
2022-09-21T16:59:36.964Z,1.00
2022-09-21T17:02:07.975Z,0.88
2022-09-21T17:04:38.180Z,0.90
2022-09-21T17:07:08.135Z,0.98
2022-09-21T17:09:44.345Z,1.05
2022-09-21T17:12:20.475Z,1.08
2022-09-21T17:14:51.809Z,0.80
2022-09-21T17:17:23.336Z,1.13
2022-09-21T17:19:54.664Z,0.95
2022-09-21T17:22:25.575Z,0.80
2022-09-21T17:24:57.932Z,1.00
2022-09-21T17:27:29.245Z,1.10
2022-09-21T17:30:03.459Z,1.23
2022-09-21T17:32:36.548Z,0.95
2022-09-21T17:35:18.692Z,0.95
2022-09-21T17:37:48.445Z,1.10
2022-09-21T17:40:23.372Z,0.70
2022-09-21T17:42:54.543Z,0.90
2022-09-21T17:45:36.135Z,1.10
2022-09-21T17:48:06.523Z,1.15
2022-09-21T17:50:36.559Z,0.85
2022-09-21T17:53:19.261Z,1.10
2022-09-21T17:55:57.195Z,1.17
2022-09-21T17:58:42.205Z,1.10
2022-09-21T18:01:23.048Z,1.10
2022-09-21T18:03:53.441Z,0.85
2022-09-21T18:06:23.669Z,1.15
2022-09-21T18:08:54.200Z,0.95
2022-09-21T18:11:45.043Z,1.60
2022-09-21T18:14:25.159Z,1.30
2022-09-21T18:17:04.460Z,1.20
2022-09-21T18:19:45.563Z,1.70
2022-09-21T18:22:22.021Z,1.20
2022-09-21T18:24:52.951Z,1.20
2022-09-21T18:27:25.889Z,1.30
2022-09-21T18:29:56.237Z,1.50
2022-09-21T18:32:36.908Z,8.45
2022-09-21T18:35:29.438Z,1.38
2022-09-21T18:38:18.865Z,1.45
2022-09-21T18:41:00.504Z,1.40
2022-09-21T18:43:46.060Z,1.80
2022-09-21T18:46:19.799Z,2.13
2022-09-21T18:48:56.836Z,2.53
2022-09-21T18:51:33.906Z,3.63
2022-09-21T18:54:03.909Z,2.88
2022-09-21T18:56:38.562Z,2.03
2022-09-21T18:59:15.691Z,1.52
2022-09-21T19:01:47.116Z,1.40
2022-09-21T19:04:18.797Z,1.88
2022-09-21T19:06:59.676Z,1.60
2022-09-21T19:09:43.360Z,2.55
2022-09-21T19:12:28.688Z,1.88
2022-09-21T19:15:13.781Z,2.08
2022-09-21T19:17:56.648Z,1.83
2022-09-21T19:20:40.709Z,2.15
2022-09-21T19:23:25.321Z,1.95
2022-09-21T19:26:02.104Z,1.80
2022-09-21T19:28:53.036Z,1.73
2022-09-21T19:31:25.811Z,1.85
2022-09-21T19:33:55.849Z,1.40
2022-09-21T19:36:25.939Z,1.48
2022-09-21T19:38:56.488Z,1.75
2022-09-21T19:41:41.000Z,1.48
2022-09-21T19:44:23.551Z,1.77
2022-09-21T19:47:06.849Z,1.30
2022-09-21T19:49:46.324Z,1.65
2022-09-21T19:52:19.288Z,1.50
2022-09-21T19:55:02.268Z,1.67
2022-09-21T19:57:45.361Z,2.15
2022-09-21T20:00:19.145Z,1.90
2022-09-21T20:03:04.971Z,2.30
2022-09-21T20:05:45.817Z,2.40
2022-09-21T20:08:22.691Z,2.25
2022-09-21T20:11:03.420Z,1.92
2022-09-21T20:13:49.067Z,2.58
2022-09-21T20:16:32.422Z,2.33
2022-09-21T20:19:14.756Z,2.40
2022-09-21T20:21:47.155Z,2.50
2022-09-21T20:24:23.350Z,2.65
2022-09-21T20:26:54.284Z,3.05
2022-09-21T20:29:24.732Z,3.25
2022-09-21T20:31:56.369Z,3.13
2022-09-21T20:34:28.602Z,3.22
2022-09-21T20:36:58.361Z,3.40
2022-09-21T20:39:28.079Z,2.97
2022-09-21T20:41:58.521Z,2.70
2022-09-21T20:44:28.281Z,2.50
2022-09-21T20:46:57.964Z,2.42
2022-09-21T20:49:30.502Z,2.47
2022-09-21T20:52:01.351Z,2.67
2022-09-21T20:54:31.025Z,2.45
2022-09-21T20:57:00.816Z,1.92
2022-09-21T20:59:31.105Z,2.78
2022-09-21T21:02:00.792Z,2.33
2022-09-21T21:04:33.056Z,2.30
2022-09-21T21:07:02.828Z,2.30
2022-09-21T21:09:32.516Z,2.33
2022-09-21T21:12:02.429Z,2.30
2022-09-21T21:14:32.108Z,2.22
2022-09-21T21:17:02.457Z,2.60
2022-09-21T21:19:34.860Z,1.90
2022-09-21T21:22:04.543Z,1.90
2022-09-21T21:24:44.172Z,1.55
2022-09-21T21:27:16.430Z,1.50
2022-09-21T21:29:46.479Z,1.70
2022-09-21T21:32:16.833Z,1.83
2022-09-21T21:34:50.480Z,1.80
2022-09-21T21:37:21.984Z,1.60
2022-09-21T21:39:51.721Z,1.70
2022-09-21T21:42:21.820Z,1.58
2022-09-21T21:44:52.214Z,1.75
2022-09-21T21:47:38.860Z,2.22
2022-09-21T21:50:13.054Z,1.83
2022-09-21T21:52:45.261Z,1.40
2022-09-21T21:55:15.327Z,1.95
2022-09-21T21:57:45.078Z,1.90
2022-09-21T22:00:16.291Z,2.10
2022-09-21T22:02:46.495Z,1.73
2022-09-21T22:05:18.960Z,1.90
2022-09-21T22:07:49.097Z,2.17
2022-09-21T22:10:18.987Z,1.65
2022-09-21T22:12:48.660Z,1.60
2022-09-21T22:15:18.647Z,1.98
2022-09-21T22:17:48.325Z,2.08
2022-09-21T22:20:20.685Z,1.92
2022-09-21T22:22:50.355Z,1.98
2022-09-21T22:25:20.226Z,2.42
2022-09-21T22:27:49.915Z,2.53
2022-09-21T22:30:19.975Z,2.28
2022-09-21T22:32:51.675Z,2.20
2022-09-21T22:35:23.944Z,2.20
2022-09-21T22:37:54.757Z,2.08
2022-09-21T22:40:24.804Z,2.30
2022-09-21T22:42:54.579Z,2.65
2022-09-21T22:45:26.374Z,2.92
2022-09-21T22:47:56.088Z,2.53
2022-09-21T22:50:28.385Z,2.80
2022-09-21T22:52:58.082Z,2.42
2022-09-21T22:55:27.776Z,2.72
2022-09-21T22:57:57.481Z,3.00
2022-09-21T23:00:27.132Z,2.33
2022-09-21T23:02:57.517Z,2.17
2022-09-21T23:05:30.069Z,2.83
2022-09-21T23:07:59.803Z,2.63
2022-09-21T23:10:29.856Z,2.95
2022-09-21T23:12:59.538Z,2.15
2022-09-21T23:15:29.213Z,2.60
2022-09-21T23:17:58.908Z,2.22
2022-09-21T23:20:31.315Z,2.63
2022-09-21T23:23:01.019Z,2.20
2022-09-21T23:25:30.712Z,2.50
2022-09-21T23:28:00.632Z,2.30
2022-09-21T23:30:30.332Z,2.40
2022-09-21T23:32:59.996Z,2.40
2022-09-21T23:35:32.288Z,3.10
2022-09-21T23:38:02.277Z,2.92
2022-09-21T23:40:32.234Z,2.58
2022-09-21T23:43:02.237Z,2.60
2022-09-21T23:45:31.939Z,2.60
2022-09-21T23:48:01.635Z,2.47
2022-09-21T23:50:33.924Z,2.25
2022-09-21T23:53:03.918Z,2.55
2022-09-21T23:55:33.853Z,3.10
2022-09-21T23:58:03.551Z,2.60
